Time;durP1;ratioP1;P1;durP2;ratioP2;P2;SDS_P1;SDS_P2;PMS_P1;PMS_P2;Temp;Humidity;BMP_temperature;BMP_pressure;BME280_temperature;BME280_humidity;BME280_pressure;Samples;Min_cycle;Max_cycle;Signal;HPM_P1;HPM_P2
2023/01/14 00:02:24;;;;;;;19.63;5.50;;;7.80;94.10;;;;;;4985905;28;20642;-90
2023/01/14 00:04:58;;;;;;;24.57;5.63;;;7.90;94.40;;;;;;4996053;28;20180;-93
2023/01/14 00:07:26;;;;;;;24.10;6.50;;;7.90;93.70;;;;;;4987429;28;20211;-92
2023/01/14 00:09:52;;;;;;;21.63;5.27;;;8.00;93.50;;;;;;4986401;28;20187;-88
2023/01/14 00:12:22;;;;;;;23.67;5.70;;;8.00;91.90;;;;;;4982462;28;20175;-91
2023/01/14 00:14:50;;;;;;;19.80;5.83;;;8.00;92.60;;;;;;4982958;28;20175;-93
2023/01/14 00:17:17;;;;;;;21.50;4.97;;;7.90;91.40;;;;;;4968285;28;20179;-91
2023/01/14 00:19:44;;;;;;;21.10;5.90;;;7.90;92.60;;;;;;4984224;28;20175;-92
2023/01/14 00:22:09;;;;;;;25.93;6.20;;;7.80;93.30;;;;;;4984792;28;20223;-91
2023/01/14 00:24:37;;;;;;;19.30;5.70;;;7.80;93.70;;;;;;4984767;28;20168;-91
2023/01/14 00:27:04;;;;;;;22.83;5.00;;;7.80;94.60;;;;;;4985173;28;20184;-89
2023/01/14 00:29:32;;;;;;;22.83;5.73;;;7.70;95.20;;;;;;4987735;28;20242;-93
2023/01/14 00:32:00;;;;;;;26.10;4.87;;;7.80;94.50;;;;;;4986349;28;20243;-91
2023/01/14 00:34:29;;;;;;;24.10;5.10;;;7.80;93.50;;;;;;4989344;28;20182;-89
2023/01/14 00:36:56;;;;;;;23.07;5.30;;;7.80;94.10;;;;;;4986127;28;20606;-92
2023/01/14 00:39:29;;;;;;;24.50;4.67;;;7.80;94.70;;;;;;4990041;28;20191;-92
2023/01/14 00:41:55;;;;;;;20.23;5.50;;;7.80;94.20;;;;;;4989433;28;20286;-91
2023/01/14 00:44:21;;;;;;;25.60;5.33;;;7.60;95.40;;;;;;4997309;28;20176;-90
2023/01/14 00:46:47;;;;;;;16.53;4.23;;;7.70;96.40;;;;;;4998354;28;20227;-88
2023/01/14 00:49:28;;;;;;;17.77;4.83;;;7.70;96.90;;;;;;4998151;28;20212;-86
2023/01/14 00:51:54;;;;;;;21.00;5.87;;;7.70;96.10;;;;;;4998668;28;20183;-85
2023/01/14 00:54:20;;;;;;;19.63;4.47;;;7.80;97.00;;;;;;4998758;28;20223;-87
2023/01/14 00:56:51;;;;;;;24.77;5.30;;;7.80;97.40;;;;;;4999043;28;20167;-86
2023/01/14 00:59:22;;;;;;;21.10;6.20;;;7.60;97.60;;;;;;4999377;28;20171;-87
2023/01/14 01:01:51;;;;;;;19.50;4.90;;;7.50;98.70;;;;;;4998370;28;20237;-88
2023/01/14 01:07:52;;;;;;;24.73;5.13;;;7.60;99.40;;;;;;4998617;28;20211;-91
2023/01/14 01:10:56;;;;;;;17.33;4.97;;;7.60;99.50;;;;;;4989404;28;20620;-91
2023/01/14 01:13:48;;;;;;;20.13;5.03;;;7.60;99.70;;;;;;4986028;28;20168;-92
2023/01/14 01:16:23;;;;;;;23.33;4.70;;;7.60;99.40;;;;;;4985623;28;20167;-91
2023/01/14 01:18:50;;;;;;;21.90;4.67;;;7.60;99.10;;;;;;4975515;28;20186;-91
2023/01/14 01:21:25;;;;;;;15.40;4.23;;;7.60;99.40;;;;;;4977007;28;20223;-92
2023/01/14 01:23:53;;;;;;;16.57;4.50;;;7.60;99.00;;;;;;4991087;28;20259;-92
2023/01/14 01:26:24;;;;;;;21.43;4.77;;;7.60;99.20;;;;;;4987935;28;20183;-92
2023/01/14 01:28:53;;;;;;;17.63;4.10;;;7.70;99.10;;;;;;4987948;28;20171;-91
2023/01/14 01:31:24;;;;;;;16.17;4.33;;;7.60;98.30;;;;;;4968356;28;20179;-91
2023/01/14 01:33:50;;;;;;;18.60;3.90;;;7.70;98.30;;;;;;4979662;28;20183;-92
2023/01/14 01:36:20;;;;;;;20.23;5.13;;;7.70;97.90;;;;;;4980924;28;20180;-92
2023/01/14 01:38:47;;;;;;;17.90;4.03;;;7.80;97.10;;;;;;4977790;28;20290;-92
2023/01/14 01:41:27;;;;;;;18.77;4.23;;;7.70;95.90;;;;;;4988953;28;20225;-88
2023/01/14 01:43:59;;;;;;;20.50;5.00;;;7.80;96.10;;;;;;4990122;28;20222;-87
2023/01/14 01:46:25;;;;;;;23.33;4.93;;;7.70;95.80;;;;;;4981269;28;20193;-91
2023/01/14 01:49:30;;;;;;;19.50;4.70;;;7.70;95.90;;;;;;4977819;28;20218;-87
2023/01/14 01:52:17;;;;;;;15.83;4.37;;;7.80;96.30;;;;;;4998970;28;20152;-83
2023/01/14 01:55:08;;;;;;;17.47;5.07;;;7.80;94.80;;;;;;4998153;28;20230;-88
2023/01/14 01:57:35;;;;;;;20.63;4.63;;;7.80;95.20;;;;;;4995241;28;20243;-88
2023/01/14 02:00:06;;;;;;;18.37;4.63;;;7.80;94.90;;;;;;4981157;28;20198;-86
2023/01/14 02:02:46;;;;;;;21.57;4.27;;;7.90;95.10;;;;;;4989017;28;20191;-90
2023/01/14 02:08:36;;;;;;;15.07;4.47;;;7.90;93.50;;;;;;4982181;28;20667;-91
2023/01/14 02:11:21;;;;;;;22.60;5.13;;;7.90;93.30;;;;;;4983123;28;20172;-91
2023/01/14 02:14:10;;;;;;;20.00;4.63;;;7.90;94.40;;;;;;4980806;28;20176;-90
2023/01/14 02:17:10;;;;;;;18.90;4.10;;;7.90;95.00;;;;;;4979974;28;20168;-90
2023/01/14 02:19:44;;;;;;;17.63;4.17;;;8.00;95.20;;;;;;4981507;28;20184;-89
2023/01/14 02:22:44;;;;;;;19.13;4.40;;;7.80;94.10;;;;;;4980894;28;20215;-92
2023/01/14 02:25:13;;;;;;;24.43;4.83;;;7.90;94.60;;;;;;4988373;28;20176;-90
2023/01/14 02:27:49;;;;;;;15.10;3.60;;;7.90;94.80;;;;;;5000246;28;20171;-86
2023/01/14 02:30:22;;;;;;;20.43;4.87;;;7.90;94.60;;;;;;5001563;28;20155;-86
2023/01/14 02:33:28;;;;;;;22.43;4.47;;;7.90;94.80;;;;;;4999098;28;20195;-90
2023/01/14 02:36:13;;;;;;;14.90;3.80;;;7.90;94.80;;;;;;4995498;28;20147;-89
2023/01/14 02:38:59;;;;;;;20.70;4.77;;;7.90;94.40;;;;;;4996672;28;20175;-89
2023/01/14 02:44:56;;;;;;;15.70;4.40;;;7.90;93.30;;;;;;4985485;28;20316;-89
2023/01/14 02:47:27;;;;;;;16.97;3.77;;;7.90;92.70;;;;;;4992408;28;20548;-91
2023/01/14 02:49:56;;;;;;;19.00;4.50;;;7.90;93.00;;;;;;4990245;28;20183;-87
2023/01/14 02:52:22;;;;;;;20.53;4.70;;;7.90;93.50;;;;;;4992688;28;20179;-90
2023/01/14 02:54:56;;;;;;;16.90;4.77;;;7.80;93.70;;;;;;4985375;28;20180;-90
2023/01/14 02:57:51;;;;;;;19.37;4.17;;;7.80;94.10;;;;;;4965148;28;20188;-89
2023/01/14 03:00:41;;;;;;;19.47;4.47;;;7.80;94.50;;;;;;4993096;28;20164;-86
2023/01/14 03:03:40;;;;;;;23.47;4.53;;;7.80;94.60;;;;;;4999647;28;20175;-84
2023/01/14 03:06:25;;;;;;;19.67;4.33;;;7.80;94.30;;;;;;4998424;28;20206;-90
2023/01/14 03:09:02;;;;;;;12.67;4.47;;;7.80;94.00;;;;;;4997404;28;20187;-90
2023/01/14 03:11:41;;;;;;;15.37;3.93;;;7.80;93.70;;;;;;4995322;28;20174;-91
2023/01/14 03:14:48;;;;;;;24.23;3.87;;;7.80;93.80;;;;;;4991216;28;20198;-87
2023/01/14 03:20:46;;;;;;;21.00;4.93;;;7.80;93.00;;;;;;4982543;28;20211;-92
2023/01/14 03:23:17;;;;;;;19.27;5.03;;;7.80;92.20;;;;;;4981451;28;20532;-90
2023/01/14 03:25:46;;;;;;;23.57;5.03;;;7.70;92.50;;;;;;4984575;28;20182;-87
2023/01/14 03:28:17;;;;;;;20.37;5.07;;;7.70;92.80;;;;;;4991990;28;20244;-91
2023/01/14 03:30:49;;;;;;;13.70;4.13;;;7.70;93.70;;;;;;4990209;28;20191;-91
2023/01/14 03:33:29;;;;;;;23.80;4.90;;;7.70;93.80;;;;;;4993031;28;20179;-89
2023/01/14 03:35:58;;;;;;;12.23;3.77;;;7.70;94.00;;;;;;4977323;28;20179;-88
2023/01/14 03:38:35;;;;;;;13.60;4.00;;;7.80;93.40;;;;;;4968302;28;20188;-89
2023/01/14 03:41:03;;;;;;;15.60;3.90;;;7.80;92.80;;;;;;4999616;28;20222;-88
2023/01/14 03:43:49;;;;;;;15.30;3.90;;;7.90;92.20;;;;;;5000455;28;20151;-89
2023/01/14 03:46:16;;;;;;;15.73;4.07;;;7.80;92.10;;;;;;4999921;28;20187;-87
2023/01/14 03:52:47;;;;;;;19.17;4.10;;;7.70;91.70;;;;;;5000252;28;20172;-90
2023/01/14 03:55:51;;;;;;;21.23;4.17;;;7.70;91.90;;;;;;4954613;28;20187;-89
2023/01/14 03:58:51;;;;;;;24.47;4.17;;;7.80;91.10;;;;;;4979632;28;20533;-90
2023/01/14 04:01:45;;;;;;;19.33;4.60;;;7.80;90.00;;;;;;4978895;28;20216;-92
2023/01/14 04:04:12;;;;;;;19.83;4.63;;;7.80;88.90;;;;;;4985773;28;20172;-91
2023/01/14 04:06:39;;;;;;;22.10;4.30;;;7.90;88.60;;;;;;4980374;28;20186;-91
2023/01/14 04:09:06;;;;;;;20.87;4.23;;;7.80;87.20;;;;;;4978286;28;20168;-87
2023/01/14 04:11:34;;;;;;;16.20;4.37;;;7.80;86.50;;;;;;4990122;28;20179;-92
2023/01/14 04:17:10;;;;;;;19.23;3.70;;;7.90;83.20;;;;;;4984251;28;20174;-91
2023/01/14 04:19:36;;;;;;;15.80;4.17;;;8.00;82.70;;;;;;4987022;28;20266;-91
2023/01/14 04:22:02;;;;;;;16.60;3.90;;;7.90;82.50;;;;;;4984818;28;20223;-89
2023/01/14 04:24:28;;;;;;;18.00;3.90;;;8.10;81.50;;;;;;4980058;28;20231;-90
2023/01/14 04:26:56;;;;;;;15.87;3.87;;;8.00;79.50;;;;;;4989701;28;20183;-89
2023/01/14 04:29:22;;;;;;;18.07;4.13;;;8.00;79.20;;;;;;4998125;28;20171;-88
2023/01/14 04:31:48;;;;;;;15.20;4.40;;;8.00;77.80;;;;;;4997096;28;20210;-89
2023/01/14 04:34:14;;;;;;;20.47;4.80;;;8.00;77.00;;;;;;4994234;28;20179;-90
2023/01/14 04:36:40;;;;;;;15.70;4.20;;;8.00;78.40;;;;;;4998782;28;20196;-89
2023/01/14 04:39:05;;;;;;;14.93;4.03;;;8.10;77.10;;;;;;4998108;28;20179;-87
2023/01/14 04:44:22;;;;;;;21.27;4.43;;;8.20;78.20;;;;;;4985622;28;20170;-91
2023/01/14 04:47:00;;;;;;;15.43;4.00;;;8.10;77.60;;;;;;4984793;28;20194;-92
2023/01/14 04:49:32;;;;;;;15.43;3.90;;;8.20;78.70;;;;;;4982907;28;20175;-91
2023/01/14 04:52:00;;;;;;;13.43;4.03;;;8.30;79.40;;;;;;4986040;28;20178;-87
2023/01/14 04:54:25;;;;;;;14.70;3.67;;;8.20;81.10;;;;;;4982346;28;20167;-87
2023/01/14 04:56:51;;;;;;;17.37;4.27;;;8.30;83.60;;;;;;4999445;28;20152;-87
2023/01/14 04:59:17;;;;;;;17.03;4.20;;;8.30;83.10;;;;;;4998746;28;20203;-91
2023/01/14 05:01:55;;;;;;;17.80;4.07;;;8.30;82.70;;;;;;4997465;28;20212;-88
2023/01/14 05:07:43;;;;;;;17.70;3.90;;;8.30;82.30;;;;;;4986565;28;20167;-90
2023/01/14 05:10:09;;;;;;;16.33;3.40;;;8.30;82.20;;;;;;4981366;28;20179;-91
2023/01/14 05:12:35;;;;;;;17.67;4.60;;;8.30;82.80;;;;;;4978506;28;20263;-90
2023/01/14 05:15:00;;;;;;;18.37;4.00;;;8.40;82.50;;;;;;4978846;28;20601;-90
2023/01/14 05:17:26;;;;;;;12.13;3.53;;;8.40;79.50;;;;;;4977678;28;20168;-91
2023/01/14 05:19:52;;;;;;;12.77;3.10;;;8.50;81.00;;;;;;4977709;28;20270;-91
2023/01/14 05:22:19;;;;;;;17.57;3.97;;;8.40;83.70;;;;;;4979875;28;20593;-92
2023/01/14 05:24:45;;;;;;;16.37;4.13;;;8.40;87.40;;;;;;4980738;28;20263;-90
2023/01/14 05:27:14;;;;;;;14.50;4.03;;;8.40;89.40;;;;;;4978086;28;20231;-91
2023/01/14 05:29:40;;;;;;;13.80;3.40;;;8.50;91.40;;;;;;4977969;28;20183;-91
2023/01/14 05:32:06;;;;;;;12.53;3.60;;;8.40;93.00;;;;;;4978929;28;20187;-92
2023/01/14 05:34:32;;;;;;;12.87;4.00;;;8.40;94.60;;;;;;4978579;28;20170;-91
2023/01/14 05:36:59;;;;;;;14.10;3.57;;;8.40;96.80;;;;;;4980312;28;20638;-90
2023/01/14 05:39:29;;;;;;;15.13;3.80;;;8.50;98.60;;;;;;4986566;28;20211;-91
2023/01/14 05:47:24;;;;;;;14.53;4.30;;;8.30;99.90;;;;;;4992644;28;20177;-87
2023/01/14 05:49:51;;;;;;;12.47;3.57;;;8.30;99.90;;;;;;5000880;28;20271;-90
2023/01/14 05:52:17;;;;;;;13.33;3.40;;;8.30;99.90;;;;;;5000811;28;20216;-90
2023/01/14 05:58:06;;;;;;;12.50;3.77;;;8.30;99.90;;;;;;5001209;28;20211;-87
2023/01/14 06:06:23;;;;;;;12.80;3.50;;;8.30;99.90;;;;;;5002472;28;20310;-90
2023/01/14 06:08:59;;;;;;;10.27;3.20;;;8.30;99.90;;;;;;5001495;28;20160;-87
2023/01/14 06:11:27;;;;;;;8.30;2.77;;;8.30;99.90;;;;;;5001726;28;20160;-87
2023/01/14 06:17:21;;;;;;;9.10;2.93;;;8.30;99.90;;;;;;4997794;28;20167;-89
2023/01/14 06:20:38;;;;;;;8.27;2.70;;;8.40;99.90;;;;;;4987560;28;20178;-91
2023/01/14 06:23:54;;;;;;;9.43;3.37;;;8.40;99.90;;;;;;4984901;28;20180;-92
2023/01/14 06:26:27;;;;;;;10.43;2.63;;;8.50;99.90;;;;;;4981820;28;20179;-91
2023/01/14 06:28:57;;;;;;;9.33;3.10;;;8.50;99.90;;;;;;4981535;28;20188;-93
2023/01/14 06:31:24;;;;;;;8.07;2.80;;;8.50;99.90;;;;;;4991206;28;20202;-91
2023/01/14 06:33:51;;;;;;;10.70;3.30;;;8.50;99.90;;;;;;5000206;28;20203;-89
2023/01/14 06:36:19;;;;;;;8.83;3.03;;;8.60;99.90;;;;;;4993811;28;20284;-91
2023/01/14 06:38:45;;;;;;;7.67;2.80;;;8.50;99.90;;;;;;4983360;28;20179;-91
2023/01/14 06:41:12;;;;;;;6.20;2.80;;;8.60;99.90;;;;;;4985279;28;20247;-91
2023/01/14 06:43:44;;;;;;;7.03;2.73;;;8.70;99.90;;;;;;4985315;28;20191;-90
2023/01/14 06:46:12;;;;;;;7.97;2.93;;;8.70;99.90;;;;;;4987653;28;20172;-91
2023/01/14 06:48:39;;;;;;;9.67;3.03;;;8.70;99.90;;;;;;4965105;28;20179;-91
2023/01/14 06:51:07;;;;;;;9.93;3.07;;;8.70;99.90;;;;;;4972701;28;20183;-87
2023/01/14 06:53:33;;;;;;;8.73;2.70;;;8.70;99.90;;;;;;4999642;28;20190;-90
2023/01/14 06:56:06;;;;;;;8.27;2.73;;;8.70;99.90;;;;;;4997093;28;20195;-90
2023/01/14 06:58:31;;;;;;;8.90;2.67;;;8.80;99.90;;;;;;4993041;28;20218;-88
2023/01/14 07:00:58;;;;;;;7.17;2.50;;;8.80;99.90;;;;;;4998532;28;20684;-87
2023/01/14 07:03:25;;;;;;;8.07;2.70;;;8.90;99.90;;;;;;4983966;28;20163;-86
2023/01/14 07:05:52;;;;;;;7.37;2.67;;;8.80;99.90;;;;;;4980147;28;20247;-91
2023/01/14 07:08:19;;;;;;;8.87;3.17;;;9.00;99.90;;;;;;4975956;28;20179;-83
2023/01/14 07:11:05;;;;;;;11.53;2.97;;;8.80;99.90;;;;;;5000457;28;20211;-84
2023/01/14 07:13:33;;;;;;;6.07;2.00;;;8.90;99.90;;;;;;4990652;28;20183;-91
2023/01/14 07:19:11;;;;;;;9.37;2.53;;;9.00;99.90;;;;;;4984563;28;20156;-91
2023/01/14 07:21:40;;;;;;;9.40;2.27;;;9.00;99.90;;;;;;4995883;28;20214;-90
2023/01/14 07:24:06;;;;;;;9.40;2.13;;;9.00;99.90;;;;;;4983474;28;20176;-89
2023/01/14 07:26:32;;;;;;;8.03;2.50;;;8.90;99.90;;;;;;4999040;28;20331;-86
2023/01/14 07:28:58;;;;;;;7.13;2.30;;;9.00;99.90;;;;;;4999782;28;20227;-88
2023/01/14 07:31:52;;;;;;;10.57;2.43;;;9.00;99.90;;;;;;5000327;28;20168;-85
2023/01/14 07:34:31;;;;;;;7.77;2.30;;;9.10;99.90;;;;;;4998140;28;20176;-86
2023/01/14 07:36:56;;;;;;;10.03;2.07;;;9.20;99.90;;;;;;4996670;28;20668;-89
2023/01/14 07:42:46;;;;;;;8.30;2.50;;;9.20;99.90;;;;;;4986079;28;20204;-87
2023/01/14 07:45:28;;;;;;;6.33;2.53;;;9.30;99.90;;;;;;4963009;28;20187;-85
2023/01/14 07:47:57;;;;;;;6.43;2.37;;;9.30;99.90;;;;;;4979953;28;20198;-86
2023/01/14 07:50:22;;;;;;;9.30;3.27;;;9.40;99.90;;;;;;4985958;28;20255;-83
2023/01/14 07:52:56;;;;;;;9.63;3.03;;;9.40;99.90;;;;;;4998002;28;20175;-85
2023/01/14 07:55:22;;;;;;;12.20;3.40;;;9.40;99.90;;;;;;4998767;28;20191;-88
2023/01/14 07:57:49;;;;;;;12.30;4.20;;;9.50;99.90;;;;;;4998386;28;20176;-86
2023/01/14 08:00:15;;;;;;;10.60;3.03;;;9.60;99.90;;;;;;4996564;28;20195;-86
2023/01/14 08:06:35;;;;;;;9.43;3.40;;;9.60;99.90;;;;;;4991324;28;20190;-91
2023/01/14 08:09:04;;;;;;;11.33;3.07;;;9.60;99.90;;;;;;4979064;28;20180;-91
2023/01/14 08:11:29;;;;;;;9.83;2.77;;;9.60;99.90;;;;;;4978853;28;20175;-89
2023/01/14 08:13:59;;;;;;;14.47;2.50;;;9.60;99.90;;;;;;4984011;28;20196;-82
2023/01/14 08:16:39;;;;;;;8.73;2.67;;;9.70;99.90;;;;;;4992212;28;20160;-87
2023/01/14 08:19:05;;;;;;;11.33;2.47;;;9.60;99.90;;;;;;4987484;28;20180;-89
2023/01/14 08:21:30;;;;;;;8.43;2.77;;;9.60;99.90;;;;;;4981623;28;20200;-85
2023/01/14 08:23:56;;;;;;;9.47;2.50;;;9.60;99.90;;;;;;4982224;28;20183;-89
2023/01/14 08:26:23;;;;;;;11.20;3.07;;;9.60;99.90;;;;;;4984701;28;20652;-89
2023/01/14 08:28:57;;;;;;;7.73;2.30;;;9.50;99.90;;;;;;4980530;28;20163;-90
2023/01/14 08:31:23;;;;;;;12.70;2.77;;;9.50;99.90;;;;;;4986267;28;20230;-90
2023/01/14 08:33:49;;;;;;;7.47;2.30;;;9.60;99.90;;;;;;4991680;28;20164;-86
2023/01/14 08:36:19;;;;;;;9.67;2.67;;;9.60;99.90;;;;;;4998176;28;20227;-87
2023/01/14 08:38:50;;;;;;;11.10;2.70;;;9.60;99.90;;;;;;4998718;28;20180;-85
2023/01/14 08:48:02;;;;;;;11.00;2.50;;;9.60;99.90;;;;;;4982917;28;20194;-88
2023/01/14 08:50:28;;;;;;;10.47;2.60;;;9.60;99.90;;;;;;4983770;28;20266;-90
2023/01/14 08:52:56;;;;;;;11.37;2.50;;;9.60;99.90;;;;;;4982359;28;20218;-90
2023/01/14 08:55:22;;;;;;;9.00;2.27;;;9.60;99.90;;;;;;4982623;28;20182;-90
2023/01/14 08:57:48;;;;;;;8.03;2.70;;;9.60;99.90;;;;;;4982092;28;20175;-90
2023/01/14 09:00:14;;;;;;;7.30;2.70;;;9.60;99.90;;;;;;4982290;28;20266;-90
2023/01/14 09:02:42;;;;;;;7.07;2.07;;;9.60;99.90;;;;;;4985419;28;20286;-90
2023/01/14 09:05:09;;;;;;;10.60;3.13;;;9.70;99.90;;;;;;4979367;28;20236;-89
2023/01/14 09:19:03;;;;;;;5.13;1.57;;;9.70;99.90;;;;;;4988606;28;20170;-91
2023/01/14 09:21:28;;;;;;;8.03;1.70;;;9.70;99.90;;;;;;4984010;28;20207;-91
2023/01/14 09:23:58;;;;;;;6.70;1.87;;;9.80;99.90;;;;;;4984410;28;20706;-91
2023/01/14 09:26:24;;;;;;;6.47;1.90;;;10.00;99.90;;;;;;4984657;28;20270;-89
2023/01/14 09:28:51;;;;;;;6.57;1.40;;;9.90;99.90;;;;;;4993520;28;20171;-86
2023/01/14 09:31:18;;;;;;;4.77;1.30;;;9.90;99.90;;;;;;5010326;28;20571;-86
2023/01/14 09:33:45;;;;;;;4.00;1.57;;;9.90;99.90;;;;;;5015956;28;20175;-88
2023/01/14 09:36:10;;;;;;;5.33;1.50;;;9.90;99.90;;;;;;5003895;28;20182;-87
2023/01/14 09:38:36;;;;;;;5.30;1.50;;;9.90;99.90;;;;;;5001380;28;20666;-88
2023/01/14 09:41:02;;;;;;;7.17;1.57;;;9.90;99.90;;;;;;5004162;28;20226;-89
2023/01/14 09:43:30;;;;;;;5.10;1.70;;;9.90;99.90;;;;;;5005109;28;20241;-89
2023/01/14 09:46:02;;;;;;;4.07;1.70;;;10.00;99.90;;;;;;5003354;28;20167;-88
2023/01/14 09:48:30;;;;;;;4.97;1.43;;;10.00;99.90;;;;;;5014789;28;20159;-89
2023/01/14 09:51:19;;;;;;;4.53;1.30;;;10.00;99.90;;;;;;5020222;28;20175;-85
2023/01/14 09:54:04;;;;;;;5.03;1.83;;;10.00;99.90;;;;;;5009234;28;20183;-88
2023/01/14 09:56:53;;;;;;;3.03;1.17;;;10.00;99.90;;;;;;5010165;28;20167;-88
2023/01/14 09:59:53;;;;;;;4.27;1.50;;;10.00;99.90;;;;;;5004383;28;20186;-87
2023/01/14 10:02:38;;;;;;;4.90;1.27;;;10.10;99.90;;;;;;5003633;28;20210;-87
2023/01/14 10:05:19;;;;;;;7.47;2.03;;;10.10;99.90;;;;;;5003092;28;20627;-85
2023/01/14 10:07:55;;;;;;;8.97;1.90;;;10.10;99.90;;;;;;5005656;28;20236;-88
2023/01/14 10:10:25;;;;;;;4.80;1.50;;;10.10;99.90;;;;;;4977624;28;20176;-87
2023/01/14 10:12:53;;;;;;;5.50;1.40;;;10.10;99.90;;;;;;4974240;28;20187;-88
2023/01/14 10:15:34;;;;;;;4.17;1.50;;;10.20;99.90;;;;;;4983175;28;20263;-91
2023/01/14 10:18:23;;;;;;;4.90;1.60;;;10.20;99.90;;;;;;4982385;28;20175;-88
2023/01/14 10:20:59;;;;;;;3.77;1.10;;;10.20;99.90;;;;;;4983832;28;20250;-87
2023/01/14 10:23:40;;;;;;;4.53;1.10;;;10.20;99.90;;;;;;4983810;28;20176;-89
2023/01/14 10:26:20;;;;;;;4.37;1.37;;;10.20;99.90;;;;;;4984223;28;20262;-88
2023/01/14 10:28:49;;;;;;;5.80;1.27;;;10.40;99.90;;;;;;4985113;28;20176;-86
2023/01/14 10:31:24;;;;;;;3.87;1.23;;;10.30;99.90;;;;;;4982392;28;20195;-86
2023/01/14 10:33:50;;;;;;;5.03;1.13;;;10.30;99.90;;;;;;4965261;29;20176;-86
2023/01/14 10:36:21;;;;;;;3.30;1.20;;;10.30;99.90;;;;;;4981636;28;20180;-85
2023/01/14 10:38:51;;;;;;;4.07;1.10;;;10.30;99.90;;;;;;4984182;28;20195;-85
2023/01/14 10:41:48;;;;;;;2.90;1.30;;;10.30;99.90;;;;;;4974586;28;20203;-85
2023/01/14 10:44:34;;;;;;;2.47;0.97;;;10.30;99.90;;;;;;4996230;28;20711;-86
2023/01/14 10:47:08;;;;;;;2.97;1.10;;;10.40;99.90;;;;;;4993126;28;20194;-86
2023/01/14 10:50:13;;;;;;;3.30;1.10;;;10.50;99.90;;;;;;4996311;28;20175;-86
2023/01/14 10:52:43;;;;;;;2.73;1.10;;;10.50;99.90;;;;;;4985437;28;20205;-83
2023/01/14 10:55:12;;;;;;;3.60;1.03;;;10.50;99.90;;;;;;4991331;28;20567;-90
2023/01/14 10:58:13;;;;;;;2.20;1.00;;;10.40;99.90;;;;;;4994697;28;20191;-87
2023/01/14 11:00:47;;;;;;;2.00;1.03;;;10.40;99.90;;;;;;4998121;28;20202;-87
2023/01/14 11:03:27;;;;;;;2.40;1.00;;;10.50;99.90;;;;;;5003683;28;20196;-88
2023/01/14 11:06:04;;;;;;;2.40;1.03;;;10.50;99.90;;;;;;5007693;28;20512;-91
2023/01/14 11:09:25;;;;;;;2.30;0.90;;;10.40;99.90;;;;;;4998126;28;20202;-87
2023/01/14 11:11:51;;;;;;;2.97;1.13;;;10.50;99.90;;;;;;4998861;28;20194;-88
2023/01/14 11:14:28;;;;;;;2.27;1.20;;;10.50;99.90;;;;;;5004387;28;20167;-89
2023/01/14 11:16:56;;;;;;;3.00;1.20;;;10.50;99.90;;;;;;5017235;28;20209;-90
2023/01/14 11:19:27;;;;;;;2.70;1.10;;;10.60;99.90;;;;;;5018736;28;20171;-88
2023/01/14 11:21:55;;;;;;;3.87;1.50;;;10.50;99.90;;;;;;5017605;28;20246;-85
2023/01/14 11:24:38;;;;;;;4.43;1.30;;;10.50;99.90;;;;;;5018195;28;20194;-84
2023/01/14 11:27:23;;;;;;;3.97;1.40;;;10.60;99.90;;;;;;5018585;28;20247;-87
2023/01/14 11:30:26;;;;;;;2.80;1.17;;;10.60;99.90;;;;;;5015913;28;20167;-85
2023/01/14 11:32:55;;;;;;;4.27;1.47;;;10.60;99.90;;;;;;5015422;28;20183;-85
2023/01/14 11:35:37;;;;;;;2.30;1.00;;;10.60;99.90;;;;;;5014983;28;20167;-87
2023/01/14 11:38:05;;;;;;;2.73;1.30;;;10.60;99.90;;;;;;4973944;28;20175;-85
2023/01/14 11:43:19;;;;;;;3.93;1.60;;;10.70;99.90;;;;;;5008675;28;20251;-87
2023/01/14 11:45:46;;;;;;;2.90;1.20;;;10.70;99.90;;;;;;5013434;28;20321;-87
2023/01/14 11:48:29;;;;;;;5.13;1.20;;;10.70;99.90;;;;;;5013157;28;20183;-85
2023/01/14 11:51:15;;;;;;;4.53;1.20;;;10.80;99.90;;;;;;5008565;28;20195;-86
2023/01/14 11:53:47;;;;;;;2.43;1.07;;;10.70;99.90;;;;;;5010093;28;20187;-88
2023/01/14 11:56:28;;;;;;;3.73;1.40;;;10.80;99.90;;;;;;5010394;28;20194;-85
2023/01/14 11:58:55;;;;;;;4.60;1.53;;;10.80;99.90;;;;;;5014636;28;20167;-87
2023/01/14 12:01:28;;;;;;;4.50;1.43;;;11.00;99.90;;;;;;5013595;28;20254;-86
2023/01/14 12:04:33;;;;;;;2.37;1.10;;;10.90;99.90;;;;;;5012278;28;20266;-87
2023/01/14 12:07:11;;;;;;;3.77;1.27;;;11.00;99.90;;;;;;4986917;28;20163;-89
2023/01/14 12:09:55;;;;;;;3.07;1.17;;;10.90;99.90;;;;;;5013694;28;20205;-85
2023/01/14 12:22:15;;;;;;;5.27;1.30;;;11.20;99.90;;;;;;5018035;28;20206;-89
2023/01/14 12:25:03;;;;;;;3.60;1.33;;;11.20;99.90;;;;;;5015912;28;20179;-82
2023/01/14 12:28:08;;;;;;;3.67;1.30;;;11.20;99.90;;;;;;5011790;28;20175;-87
2023/01/14 12:30:49;;;;;;;2.77;1.40;;;11.30;99.90;;;;;;5014476;28;20158;-86
2023/01/14 12:33:31;;;;;;;4.77;1.60;;;11.40;99.90;;;;;;4997991;28;20179;-85
2023/01/14 12:36:24;;;;;;;2.73;1.33;;;11.40;99.90;;;;;;5001012;28;20179;-86
2023/01/14 12:45:47;;;;;;;2.60;1.27;;;11.50;99.90;;;;;;5004858;28;20150;-88
2023/01/14 12:49:00;;;;;;;5.60;1.90;;;11.50;99.90;;;;;;4993079;28;20198;-86
2023/01/14 12:51:39;;;;;;;2.13;1.00;;;11.50;99.90;;;;;;5002271;28;20179;-86
2023/01/14 12:54:29;;;;;;;5.10;1.80;;;11.50;99.90;;;;;;5005500;28;20222;-84
2023/01/14 12:56:59;;;;;;;2.70;1.40;;;11.50;99.90;;;;;;5016163;28;20190;-83
2023/01/14 12:59:38;;;;;;;5.33;1.80;;;11.50;99.90;;;;;;5016732;28;20251;-83
2023/01/14 13:02:17;;;;;;;4.20;1.40;;;11.50;99.90;;;;;;5004760;28;20218;-87
2023/01/14 13:05:03;;;;;;;5.33;1.60;;;11.40;99.90;;;;;;5009512;28;20167;-84
2023/01/14 13:07:35;;;;;;;5.00;1.57;;;11.40;99.90;;;;;;5007939;28;20182;-85
2023/01/14 13:10:04;;;;;;;3.97;1.57;;;11.30;99.90;;;;;;5007258;28;20190;-84
2023/01/14 13:12:33;;;;;;;5.13;1.30;;;11.30;99.90;;;;;;5004777;28;20564;-86
2023/01/14 13:15:05;;;;;;;5.13;1.60;;;11.30;99.90;;;;;;5001633;28;20182;-86
2023/01/14 13:17:33;;;;;;;3.20;1.50;;;11.40;99.90;;;;;;4999725;28;20229;-85
2023/01/14 13:20:21;;;;;;;3.67;1.27;;;11.30;99.90;;;;;;4999634;28;20175;-85
2023/01/14 13:22:52;;;;;;;6.10;2.07;;;11.30;99.90;;;;;;5003177;28;20191;-86
2023/01/14 13:25:37;;;;;;;3.57;1.63;;;11.40;99.90;;;;;;4999565;28;20167;-87
2023/01/14 13:28:11;;;;;;;3.10;1.60;;;11.40;99.90;;;;;;5002062;28;20183;-87
2023/01/14 13:30:45;;;;;;;6.03;1.90;;;11.40;99.90;;;;;;5002596;28;20718;-86
2023/01/14 13:33:13;;;;;;;6.50;2.20;;;11.30;99.90;;;;;;5003426;28;20191;-87
2023/01/14 13:35:41;;;;;;;4.97;2.10;;;11.40;99.90;;;;;;5003453;28;20191;-85
2023/01/14 13:38:48;;;;;;;4.93;1.20;;;11.40;99.90;;;;;;5003910;28;20171;-86
2023/01/14 13:41:48;;;;;;;4.40;2.10;;;11.50;99.90;;;;;;4964882;28;20229;-86
2023/01/14 13:44:29;;;;;;;5.17;2.00;;;11.50;99.90;;;;;;4998186;28;20187;-86
2023/01/14 13:47:21;;;;;;;4.97;2.17;;;11.50;99.90;;;;;;5003465;28;20250;-85
2023/01/14 13:50:16;;;;;;;5.67;2.20;;;11.50;99.90;;;;;;5001178;28;20274;-88
2023/01/14 13:53:23;;;;;;;2.53;1.60;;;11.50;99.90;;;;;;5001551;28;20190;-86
2023/01/14 13:56:01;;;;;;;3.73;1.63;;;11.50;99.90;;;;;;4985711;28;20198;-86
2023/01/14 13:58:40;;;;;;;3.40;1.70;;;11.50;99.90;;;;;;5000476;28;20178;-87
2023/01/14 14:01:34;;;;;;;5.47;2.00;;;11.50;99.90;;;;;;5006226;28;20213;-86
2023/01/14 14:04:03;;;;;;;4.37;1.33;;;11.50;99.90;;;;;;5003390;28;20190;-87
2023/01/14 14:06:32;;;;;;;1.97;1.50;;;11.50;99.90;;;;;;5004318;28;20175;-86
2023/01/14 14:09:31;;;;;;;3.33;1.37;;;11.60;99.90;;;;;;5004487;28;20724;-86
2023/01/14 14:15:35;;;;;;;3.50;1.50;;;11.60;99.90;;;;;;5007363;28;20192;-87
2023/01/14 14:18:04;;;;;;;2.77;1.60;;;11.70;99.90;;;;;;5012326;28;20182;-86
2023/01/14 14:20:42;;;;;;;2.50;1.37;;;11.60;99.90;;;;;;5019938;28;20155;-86
2023/01/14 14:23:25;;;;;;;3.87;1.43;;;11.60;99.90;;;;;;5020741;28;20259;-86
2023/01/14 14:26:01;;;;;;;4.27;1.53;;;11.60;99.90;;;;;;5016345;28;20179;-86
2023/01/14 14:28:28;;;;;;;3.90;1.43;;;11.60;99.90;;;;;;5010982;28;20206;-86
2023/01/14 14:31:18;;;;;;;3.80;1.53;;;11.70;99.90;;;;;;5005212;28;20194;-87
2023/01/14 14:33:59;;;;;;;3.80;1.67;;;11.70;99.90;;;;;;5005553;28;20198;-87
2023/01/14 14:36:27;;;;;;;3.03;1.43;;;11.80;99.90;;;;;;5008651;28;20182;-87
2023/01/14 14:39:19;;;;;;;4.97;1.50;;;11.70;99.90;;;;;;5009429;28;20194;-86
2023/01/14 14:41:55;;;;;;;2.10;1.23;;;11.70;99.90;;;;;;5010550;28;20273;-86
2023/01/14 14:44:24;;;;;;;2.30;1.40;;;11.70;99.90;;;;;;5015581;28;20178;-84
2023/01/14 14:47:21;;;;;;;3.20;1.40;;;11.70;99.90;;;;;;5013615;28;20548;-87
2023/01/14 14:49:54;;;;;;;2.63;1.50;;;11.70;99.90;;;;;;5012605;28;20178;-84
2023/01/14 14:52:25;;;;;;;3.00;1.10;;;11.70;99.90;;;;;;5013194;28;20203;-84
2023/01/14 14:55:02;;;;;;;3.33;1.27;;;11.80;99.90;;;;;;5016350;28;20263;-85
2023/01/14 14:57:30;;;;;;;5.20;1.53;;;11.80;99.90;;;;;;5005092;28;20171;-86
2023/01/14 15:00:06;;;;;;;2.67;1.73;;;11.70;99.90;;;;;;5020760;28;20206;-85
2023/01/14 15:02:41;;;;;;;2.90;1.50;;;11.80;99.90;;;;;;5018872;28;20223;-86
2023/01/14 15:05:18;;;;;;;2.27;1.30;;;11.80;99.90;;;;;;5015251;28;20189;-86